createdAt,value
2022-10-17T00:02:12.607Z,33.33
2022-10-17T00:07:06.243Z,32.50
2022-10-17T00:12:00.220Z,30.63
2022-10-17T00:16:53.491Z,30.30
2022-10-17T00:21:51.096Z,31.88
2022-10-17T00:26:45.594Z,30.40
2022-10-17T00:31:38.648Z,32.13
2022-10-17T00:36:32.357Z,32.83
2022-10-17T00:41:31.318Z,29.75
2022-10-17T00:46:28.172Z,31.15
2022-10-17T00:51:27.066Z,29.15
2022-10-17T00:56:22.193Z,27.05
2022-10-17T01:01:15.036Z,29.08
2022-10-17T01:06:08.746Z,28.45
2022-10-17T01:11:25.917Z,27.10
2022-10-17T01:16:18.908Z,28.45
2022-10-17T01:21:11.637Z,28.67
2022-10-17T01:26:32.603Z,28.73
2022-10-17T01:32:02.079Z,27.58
2022-10-17T01:37:06.816Z,27.77
2022-10-17T01:42:35.298Z,28.73
2022-10-17T01:47:30.590Z,29.88
2022-10-17T01:52:30.363Z,31.30
2022-10-17T01:57:50.453Z,30.42
2022-10-17T02:02:45.684Z,30.27
2022-10-17T02:07:38.891Z,30.58
2022-10-17T02:12:45.274Z,28.17
2022-10-17T02:18:15.287Z,28.65
2022-10-17T02:23:40.502Z,29.80
2022-10-17T02:28:45.328Z,29.05
2022-10-17T02:33:59.603Z,29.02
2022-10-17T02:38:55.251Z,29.65
2022-10-17T02:43:50.247Z,31.55
2022-10-17T02:48:47.961Z,31.08
2022-10-17T02:54:04.949Z,30.77
2022-10-17T02:59:01.252Z,32.40
2022-10-17T03:04:12.218Z,34.33
2022-10-17T03:09:05.625Z,34.70
2022-10-17T03:13:59.069Z,31.13
2022-10-17T03:18:53.292Z,31.60
2022-10-17T03:23:47.508Z,30.25
2022-10-17T03:28:42.630Z,29.92
2022-10-17T03:33:37.140Z,29.95
2022-10-17T03:38:30.169Z,29.67
2022-10-17T03:43:23.315Z,28.42
2022-10-17T03:48:16.663Z,30.08
2022-10-17T03:53:10.682Z,30.08
2022-10-17T03:58:04.355Z,31.75
2022-10-17T04:02:59.578Z,28.33
2022-10-17T04:07:53.702Z,32.25
2022-10-17T04:12:55.126Z,35.05
2022-10-17T04:17:48.741Z,38.63
2022-10-17T04:22:43.676Z,38.22
2022-10-17T04:27:37.724Z,36.88
2022-10-17T04:32:34.133Z,35.80
2022-10-17T04:37:33.148Z,37.05
2022-10-17T04:42:30.759Z,36.85
2022-10-17T04:47:24.485Z,39.58
2022-10-17T04:52:19.113Z,36.85
2022-10-17T04:57:15.304Z,39.38
2022-10-17T05:02:16.926Z,35.85
2022-10-17T05:07:12.246Z,35.13
2022-10-17T05:12:12.217Z,36.25
2022-10-17T05:17:09.400Z,35.08
2022-10-17T05:22:03.894Z,35.40
2022-10-17T05:31:51.806Z,32.72
2022-10-17T05:36:47.001Z,35.08
2022-10-17T05:41:43.547Z,37.75
2022-10-17T05:46:37.253Z,38.80
2022-10-17T05:51:31.139Z,39.72
2022-10-17T05:56:24.282Z,38.08
2022-10-17T06:01:19.731Z,34.83
2022-10-17T06:06:15.884Z,37.17
2022-10-17T06:11:10.967Z,38.10
2022-10-17T06:16:05.084Z,37.55
2022-10-17T06:21:26.486Z,36.42
2022-10-17T06:26:28.651Z,35.70
2022-10-17T06:31:22.736Z,34.97
2022-10-17T06:36:17.052Z,33.33
2022-10-17T06:41:14.485Z,33.03
2022-10-17T06:46:09.045Z,34.70
2022-10-17T06:51:17.909Z,39.85
2022-10-17T06:56:19.588Z,36.40
2022-10-17T07:01:22.198Z,41.67
2022-10-17T07:06:20.857Z,42.50
2022-10-17T07:11:21.144Z,41.03
2022-10-17T07:16:17.565Z,42.40
2022-10-17T07:21:14.901Z,44.28
2022-10-17T07:26:13.305Z,40.53
2022-10-17T07:31:09.250Z,39.08
2022-10-17T07:36:04.861Z,37.47
2022-10-17T07:41:25.218Z,35.13
2022-10-17T07:46:20.364Z,36.15
2022-10-17T07:51:14.022Z,34.42
2022-10-17T07:56:10.648Z,37.33
2022-10-17T08:01:30.583Z,38.42
2022-10-17T08:06:24.899Z,39.53
2022-10-17T08:11:19.254Z,44.58
2022-10-17T08:16:14.457Z,42.40
2022-10-17T08:21:08.890Z,43.42
2022-10-17T08:26:03.620Z,43.55
2022-10-17T08:31:12.249Z,44.90
2022-10-17T08:36:07.891Z,48.80
2022-10-17T08:41:04.981Z,50.75
2022-10-17T08:46:04.775Z,48.67
2022-10-17T08:51:12.231Z,46.88
2022-10-17T08:56:19.803Z,42.70
2022-10-17T09:01:24.761Z,40.40
2022-10-17T09:06:21.202Z,33.15
2022-10-17T09:11:40.295Z,32.72
2022-10-17T09:16:49.465Z,30.85
2022-10-17T09:21:50.439Z,31.27
2022-10-17T09:26:47.514Z,30.98
2022-10-17T09:31:48.506Z,28.27
2022-10-17T09:36:44.442Z,27.95
2022-10-17T09:41:53.017Z,27.95
2022-10-17T09:47:07.983Z,26.98
2022-10-17T09:52:08.289Z,27.60
2022-10-17T09:57:09.663Z,27.92
2022-10-17T10:02:30.757Z,26.98
2022-10-17T10:07:29.083Z,26.20
2022-10-17T10:12:27.766Z,26.95
2022-10-17T10:19:53.103Z,28.40
2022-10-17T10:24:46.838Z,30.63
2022-10-17T10:29:45.492Z,28.45
2022-10-17T10:34:43.860Z,27.55
2022-10-17T10:39:59.080Z,29.58
2022-10-17T10:44:54.720Z,27.45
2022-10-17T10:49:49.072Z,31.63
2022-10-17T10:54:51.477Z,31.15
2022-10-17T11:00:00.669Z,31.95
2022-10-17T11:05:03.803Z,31.42
2022-10-17T11:10:33.819Z,32.15
2022-10-17T11:15:42.106Z,31.95
2022-10-17T11:21:02.640Z,31.33
2022-10-17T11:25:58.007Z,30.73
2022-10-17T11:31:07.274Z,28.70
2022-10-17T11:36:05.881Z,30.13
2022-10-17T11:41:00.224Z,27.67
2022-10-17T11:46:01.563Z,28.25
2022-10-17T11:56:49.945Z,29.33
2022-10-17T12:01:53.456Z,29.98
2022-10-17T12:07:11.526Z,30.33
2022-10-17T12:12:06.003Z,26.98
2022-10-17T12:17:00.533Z,29.98
2022-10-17T12:22:07.254Z,30.42
2022-10-17T12:27:23.459Z,24.58
2022-10-17T12:32:17.767Z,28.85
2022-10-17T12:37:15.093Z,26.80
2022-10-17T12:42:32.505Z,23.80
2022-10-17T12:47:38.356Z,23.38
2022-10-17T12:52:35.716Z,28.38
2022-10-17T12:58:01.057Z,27.23
2022-10-17T13:02:57.210Z,28.25
2022-10-17T13:08:14.677Z,25.23
2022-10-17T13:13:17.940Z,21.55
2022-10-17T13:18:47.616Z,21.67
2022-10-17T13:23:41.202Z,24.38
2022-10-17T13:28:39.060Z,24.20
2022-10-17T13:33:39.407Z,22.17
2022-10-17T13:38:35.708Z,22.77
2022-10-17T13:43:32.962Z,24.00
2022-10-17T13:48:28.983Z,24.35
2022-10-17T13:53:33.176Z,22.95
2022-10-17T13:58:27.973Z,26.55
2022-10-17T14:03:22.041Z,24.05
2022-10-17T14:08:22.707Z,22.90
2022-10-17T14:13:23.371Z,21.92
2022-10-17T14:18:26.341Z,24.15
2022-10-17T14:23:34.654Z,23.08
2022-10-17T14:28:28.790Z,22.98
2022-10-17T14:33:27.475Z,22.83
2022-10-17T14:38:21.368Z,24.20
2022-10-17T14:43:22.363Z,22.65
2022-10-17T14:48:19.408Z,23.48
2022-10-17T14:53:13.186Z,23.15
2022-10-17T14:58:42.793Z,23.08
2022-10-17T15:03:36.427Z,24.00
2022-10-17T15:08:30.462Z,22.27
2022-10-17T15:13:28.447Z,22.08
2022-10-17T15:18:23.584Z,21.60
2022-10-17T15:23:19.042Z,23.10
2022-10-17T15:28:14.169Z,21.67
2022-10-17T15:33:07.750Z,24.45
2022-10-17T15:38:01.696Z,23.25
2022-10-17T15:42:57.118Z,24.25
2022-10-17T15:47:53.173Z,23.63
2022-10-17T15:52:48.125Z,24.67
2022-10-17T15:57:47.645Z,27.10
2022-10-17T16:02:42.029Z,25.85
2022-10-17T16:07:36.060Z,27.42
2022-10-17T16:12:31.593Z,28.13
2022-10-17T16:17:25.529Z,28.58
2022-10-17T16:22:45.628Z,26.90
2022-10-17T16:27:39.928Z,28.52
2022-10-17T16:32:33.362Z,27.00
2022-10-17T16:37:27.580Z,26.55
2022-10-17T16:42:21.854Z,26.58
2022-10-17T16:47:16.448Z,25.55
2022-10-17T16:52:10.775Z,26.77
2022-10-17T16:57:03.411Z,27.48
2022-10-17T17:01:58.163Z,43.60
2022-10-17T17:06:52.388Z,42.67
2022-10-17T17:11:46.259Z,43.55
2022-10-17T17:16:39.476Z,39.10
2022-10-17T17:21:33.631Z,35.95
2022-10-17T17:26:27.633Z,33.58
2022-10-17T17:31:28.416Z,32.90
2022-10-17T17:36:24.129Z,31.10
2022-10-17T17:41:19.789Z,26.55
2022-10-17T17:46:15.522Z,26.48
2022-10-17T17:51:11.033Z,25.52
2022-10-17T17:56:04.027Z,26.25
2022-10-17T18:01:01.368Z,26.13
2022-10-17T18:05:55.472Z,25.98
2022-10-17T18:10:50.175Z,25.95
2022-10-17T18:15:45.565Z,25.20
2022-10-17T18:20:44.405Z,25.27
2022-10-17T18:25:38.186Z,25.60
2022-10-17T18:30:34.429Z,26.60
2022-10-17T18:35:28.252Z,28.05
2022-10-17T18:40:22.036Z,27.08
2022-10-17T18:45:16.245Z,29.23
2022-10-17T18:50:10.001Z,29.65
2022-10-17T18:55:04.885Z,27.27
2022-10-17T18:59:58.776Z,29.25
2022-10-17T19:04:52.899Z,27.50
2022-10-17T19:09:48.800Z,28.15
2022-10-17T19:14:43.423Z,29.00
2022-10-17T19:19:37.622Z,29.33
2022-10-17T19:24:30.551Z,27.38
2022-10-17T19:29:28.915Z,29.55
2022-10-17T19:34:22.499Z,26.42
2022-10-17T19:39:19.129Z,26.98
2022-10-17T19:44:13.038Z,24.98
2022-10-17T19:49:07.348Z,26.05
2022-10-17T19:54:02.266Z,26.48
2022-10-17T19:58:55.931Z,27.30
2022-10-17T20:03:48.790Z,27.55
2022-10-17T20:13:36.535Z,28.25
2022-10-17T20:18:30.491Z,29.45
2022-10-17T20:23:23.610Z,28.85
2022-10-17T20:28:18.230Z,30.45
2022-10-17T20:33:11.389Z,31.08
2022-10-17T20:38:05.828Z,30.00
2022-10-17T20:43:02.372Z,31.58
2022-10-17T20:47:56.786Z,30.70
2022-10-17T20:53:10.961Z,30.75
2022-10-17T20:58:07.661Z,27.92
2022-10-17T21:03:02.200Z,31.20
2022-10-17T21:07:56.829Z,30.60
2022-10-17T21:12:54.323Z,31.00
2022-10-17T21:17:48.995Z,30.45
2022-10-17T21:22:42.782Z,30.50
2022-10-17T21:32:47.453Z,31.48
2022-10-17T21:37:43.527Z,31.20
2022-10-17T21:42:36.732Z,32.72
2022-10-17T21:47:30.913Z,31.55
2022-10-17T21:52:23.639Z,33.58
2022-10-17T22:02:11.159Z,34.85
2022-10-17T22:07:05.141Z,35.97
2022-10-17T22:11:58.768Z,35.55
2022-10-17T22:16:52.728Z,35.20
2022-10-17T22:21:47.255Z,33.60
2022-10-17T22:26:41.256Z,35.15
2022-10-17T22:31:34.801Z,33.92
2022-10-17T22:36:28.408Z,33.85
2022-10-17T22:41:21.983Z,35.58
2022-10-17T22:46:19.126Z,34.78
2022-10-17T22:51:13.747Z,30.73
2022-10-17T22:56:14.200Z,32.17
2022-10-17T23:01:09.041Z,31.45
2022-10-17T23:06:02.264Z,32.25
2022-10-17T23:10:56.073Z,34.53
2022-10-17T23:15:53.857Z,33.40
2022-10-17T23:20:47.598Z,34.97
2022-10-17T23:25:41.414Z,35.42
2022-10-17T23:30:34.731Z,33.72
2022-10-17T23:35:28.632Z,35.05
2022-10-17T23:40:22.503Z,33.55
2022-10-17T23:45:16.154Z,32.92
2022-10-17T23:50:10.672Z,35.58
2022-10-17T23:55:03.674Z,32.60
